Time;durP1;ratioP1;P1;durP2;ratioP2;P2;SDS_P1;SDS_P2;PMS_P1;PMS_P2;Temp;Humidity;BMP_temperature;BMP_pressure;BME280_temperature;BME280_humidity;BME280_pressure;Samples;Min_cycle;Max_cycle;Signal;HPM_P1;HPM_P2
2022/11/29 00:03:18;;;;;;;45.40;22.20;;;;;;;2.82;100.00;100922.80;3601999;79;99048;-85
2022/11/29 00:08:21;;;;;;;43.27;21.13;;;;;;;2.82;100.00;100916.81;3610584;79;30842;-86
2022/11/29 00:13:22;;;;;;;41.73;19.90;;;;;;;2.85;100.00;100916.75;3599454;79;98918;-86
2022/11/29 00:18:22;;;;;;;41.13;20.53;;;;;;;2.86;100.00;100919.70;3619167;79;35404;-85
2022/11/29 00:23:23;;;;;;;39.40;20.17;;;;;;;2.86;100.00;100918.34;3617744;79;98996;-87
2022/11/29 00:28:24;;;;;;;44.87;20.43;;;;;;;2.85;100.00;100919.47;3613992;79;34794;-86
2022/11/29 00:33:25;;;;;;;39.27;20.77;;;;;;;2.87;100.00;100919.95;3602543;79;108230;-86
2022/11/29 00:38:26;;;;;;;37.70;20.43;;;;;;;2.86;100.00;100917.80;3605829;79;35092;-85
2022/11/29 00:43:27;;;;;;;45.50;21.93;;;;;;;2.87;100.00;100914.51;3592193;80;99380;-85
2022/11/29 00:48:29;;;;;;;43.90;21.60;;;;;;;2.84;100.00;100915.94;3597744;80;34810;-84
2022/11/29 00:53:30;;;;;;;41.63;21.47;;;;;;;2.85;100.00;100915.39;3587894;80;99153;-86
2022/11/29 00:58:31;;;;;;;45.97;20.40;;;;;;;2.83;100.00;100906.73;3605301;80;35418;-85
2022/11/29 01:03:32;;;;;;;44.90;21.73;;;;;;;2.81;100.00;100908.97;3591673;80;98814;-86
2022/11/29 01:08:33;;;;;;;39.67;18.90;;;;;;;2.82;100.00;100904.59;3566328;80;35460;-86
2022/11/29 01:13:34;;;;;;;38.70;19.17;;;;;;;2.81;100.00;100905.70;3589392;80;98926;-85
2022/11/29 01:18:36;;;;;;;41.03;21.83;;;;;;;2.81;100.00;100906.25;3599319;80;25877;-86
2022/11/29 01:23:39;;;;;;;42.45;18.95;;;;;;;2.79;100.00;100908.49;3586613;80;99091;-86
2022/11/29 01:28:41;;;;;;;37.95;19.05;;;;;;;2.79;100.00;100909.85;3603664;80;34886;-86
2022/11/29 01:33:42;;;;;;;40.52;18.80;;;;;;;2.79;100.00;100905.78;3588544;80;98849;-88
2022/11/29 01:38:43;;;;;;;39.17;18.40;;;;;;;2.78;100.00;100914.48;3592241;80;26149;-86
2022/11/29 01:44:01;;;;;;;39.25;19.25;;;;;;;2.76;100.00;100907.75;3584518;80;99305;-86
2022/11/29 01:49:09;;;;;;;42.90;21.17;;;;;;;2.76;100.00;100904.48;3602322;80;33742;-85
2022/11/29 01:54:12;;;;;;;38.95;20.02;;;;;;;2.75;100.00;100908.33;3586508;80;99050;-87
2022/11/29 01:59:18;;;;;;;40.90;18.50;;;;;;;2.76;100.00;100910.47;3603088;80;34558;-85
2022/11/29 02:04:19;;;;;;;40.45;18.90;;;;;;;2.76;100.00;100919.98;3589770;80;98958;-86
2022/11/29 02:09:22;;;;;;;38.03;19.13;;;;;;;2.73;100.00;100913.83;3590901;80;26571;-86
2022/11/29 02:15:01;;;;;;;40.98;19.37;;;;;;;2.73;100.00;100899.66;3588924;80;98910;-87
2022/11/29 02:20:19;;;;;;;41.68;18.87;;;;;;;2.72;100.00;100905.41;3594691;80;32980;-85
2022/11/29 02:25:58;;;;;;;39.30;20.35;;;;;;;2.70;100.00;100909.81;3592660;80;98791;-87
2022/11/29 02:31:41;;;;;;;41.98;18.37;;;;;;;2.66;100.00;100903.40;3597702;80;34902;-86
2022/11/29 02:37:22;;;;;;;38.07;18.23;;;;;;;2.64;100.00;100909.71;3591464;80;98907;-85
2022/11/29 02:43:14;;;;;;;39.48;18.95;;;;;;;2.61;100.00;100911.69;3590806;80;32927;-86
2022/11/29 02:48:51;;;;;;;42.17;18.90;;;;;;;2.62;100.00;100916.00;3598334;80;34415;-87
2022/11/29 02:53:58;;;;;;;45.47;22.07;;;;;;;2.61;100.00;100926.62;3599005;80;98984;-86
2022/11/29 02:59:07;;;;;;;46.53;21.30;;;;;;;2.60;100.00;100929.11;3584650;80;26350;-87
2022/11/29 03:04:22;;;;;;;40.45;18.95;;;;;;;2.61;100.00;100927.98;3587481;80;99028;-86
2022/11/29 03:09:52;;;;;;;39.18;18.55;;;;;;;2.61;100.00;100929.89;3598717;80;35949;-86
2022/11/29 03:15:22;;;;;;;42.73;20.72;;;;;;;2.61;100.00;100932.61;3587857;80;98981;-86
2022/11/29 03:20:41;;;;;;;40.17;17.90;;;;;;;2.58;100.00;100935.97;3595299;80;34729;-85
2022/11/29 03:25:53;;;;;;;43.17;18.10;;;;;;;2.58;100.00;100929.17;3593309;80;99170;-85
2022/11/29 03:31:15;;;;;;;47.70;20.90;;;;;;;2.58;100.00;100933.25;3595543;80;34005;-86
2022/11/29 03:36:42;;;;;;;36.63;19.07;;;;;;;2.56;100.00;100931.41;3588976;80;98837;-86
2022/11/29 03:41:54;;;;;;;41.28;19.55;;;;;;;2.54;100.00;100938.50;3607128;79;34478;-86
2022/11/29 03:47:10;;;;;;;42.67;20.83;;;;;;;2.55;100.00;100944.72;3618653;79;98693;-87
2022/11/29 03:52:55;;;;;;;43.52;20.97;;;;;;;2.55;100.00;100942.00;3606495;79;33950;-84
2022/11/29 03:58:37;;;;;;;44.75;20.97;;;;;;;2.54;100.00;100939.05;3605644;79;98801;-86
2022/11/29 04:04:05;;;;;;;38.58;19.87;;;;;;;2.54;100.00;100950.73;3598613;79;99081;-86
2022/11/29 04:09:37;;;;;;;45.00;19.77;;;;;;;2.56;100.00;100953.14;3608696;79;32528;-86
2022/11/29 04:15:12;;;;;;;42.27;19.40;;;;;;;2.52;100.00;100946.72;3608737;79;98908;-85
2022/11/29 04:20:39;;;;;;;41.00;20.07;;;;;;;2.49;100.00;100959.55;3618446;79;28278;-86
2022/11/29 04:26:14;;;;;;;41.30;21.42;;;;;;;2.51;100.00;100964.14;3615013;79;98987;-84
2022/11/29 04:31:26;;;;;;;44.00;21.57;;;;;;;2.50;100.00;100966.04;3542128;79;30060;-87
2022/11/29 04:37:02;;;;;;;42.23;21.37;;;;;;;2.50;100.00;100965.22;3598201;79;98934;-85
2022/11/29 04:42:28;;;;;;;43.63;22.22;;;;;;;2.43;100.00;100964.33;3590012;80;34069;-84
2022/11/29 04:47:40;;;;;;;40.73;21.10;;;;;;;2.48;100.00;100970.18;3623765;80;99003;-85
2022/11/29 04:53:11;;;;;;;40.90;20.52;;;;;;;2.45;100.00;100976.22;3632910;80;31147;-85
2022/11/29 04:58:34;;;;;;;41.18;20.95;;;;;;;2.44;100.00;100977.33;3622850;80;33041;-85
2022/11/29 05:03:42;;;;;;;43.65;21.97;;;;;;;2.42;100.00;100981.74;3633222;80;98609;-86
2022/11/29 05:09:30;;;;;;;41.37;20.27;;;;;;;2.43;100.00;100987.95;3615125;80;35490;-86
2022/11/29 05:15:00;;;;;;;46.35;22.40;;;;;;;2.43;100.00;100983.34;3618182;80;98837;-85
2022/11/29 05:20:24;;;;;;;43.25;22.22;;;;;;;2.42;100.00;100984.45;3516831;82;32992;-87
2022/11/29 05:25:56;;;;;;;44.70;20.93;;;;;;;2.40;100.00;100993.45;3567010;81;98938;-86
2022/11/29 05:31:17;;;;;;;45.10;22.57;;;;;;;2.41;100.00;101001.84;3596657;80;32021;-85
2022/11/29 05:36:44;;;;;;;43.25;22.62;;;;;;;2.38;100.00;101000.30;3579917;80;98813;-84
2022/11/29 05:41:56;;;;;;;55.83;27.00;;;;;;;2.37;100.00;101009.57;3519592;82;30121;-85
2022/11/29 05:47:03;;;;;;;46.83;23.60;;;;;;;2.36;100.00;101012.05;3492640;82;98939;-85
2022/11/29 05:53:02;;;;;;;50.90;23.00;;;;;;;2.35;100.00;101016.66;3502089;82;32928;-85
2022/11/29 05:58:45;;;;;;;46.88;22.77;;;;;;;2.34;100.00;101025.11;3490604;81;98646;-85
2022/11/29 06:04:44;;;;;;;49.17;24.90;;;;;;;2.30;100.00;101022.78;3494738;81;99049;-87
2022/11/29 06:10:16;;;;;;;51.17;24.90;;;;;;;2.29;100.00;101034.77;3503317;83;28158;-86
2022/11/29 06:15:37;;;;;;;55.28;25.48;;;;;;;2.29;100.00;101036.91;3494408;81;99015;-86
2022/11/29 06:21:08;;;;;;;49.45;24.45;;;;;;;2.26;100.00;101041.61;3497681;83;34023;-87
2022/11/29 06:26:48;;;;;;;51.55;25.17;;;;;;;2.23;100.00;101042.20;3490463;81;98962;-86
2022/11/29 06:31:55;;;;;;;55.17;27.50;;;;;;;2.21;100.00;101058.56;3494992;82;35638;-87
2022/11/29 06:37:13;;;;;;;49.75;24.40;;;;;;;2.16;100.00;101062.74;3486370;82;98853;-84
2022/11/29 06:42:14;;;;;;;51.45;24.90;;;;;;;2.14;100.00;101067.11;3521495;81;32008;-85
2022/11/29 06:47:28;;;;;;;58.43;28.03;;;;;;;2.14;100.00;101070.41;3547699;81;98875;-85
2022/11/29 06:52:40;;;;;;;54.23;27.60;;;;;;;2.12;100.00;101070.70;3545414;81;32357;-84
2022/11/29 06:58:13;;;;;;;60.50;28.27;;;;;;;2.11;100.00;101079.95;3541440;81;99173;-84
2022/11/29 07:03:54;;;;;;;57.00;27.67;;;;;;;2.10;100.00;101081.08;3549622;80;98953;-86
2022/11/29 07:09:04;;;;;;;59.30;28.60;;;;;;;2.07;100.00;101079.53;3556761;81;32965;-85
2022/11/29 07:14:05;;;;;;;56.13;27.00;;;;;;;2.01;100.00;101086.14;3550570;79;99078;-86
2022/11/29 07:19:35;;;;;;;59.03;26.75;;;;;;;2.01;100.00;101086.14;3549309;81;33955;-86
2022/11/29 07:25:11;;;;;;;60.77;28.03;;;;;;;2.00;100.00;101089.43;3541559;81;99068;-85
2022/11/29 07:30:32;;;;;;;66.57;30.15;;;;;;;2.00;100.00;101089.97;3551759;81;32558;-85
2022/11/29 07:35:47;;;;;;;60.10;29.83;;;;;;;1.99;100.00;101086.47;3551268;81;98998;-85
2022/11/29 07:41:00;;;;;;;56.50;28.50;;;;;;;2.01;100.00;101091.03;3544147;80;28146;-85
2022/11/29 07:46:01;;;;;;;54.90;26.80;;;;;;;2.01;100.00;101099.72;3581814;80;99025;-86
2022/11/29 07:51:02;;;;;;;60.73;29.73;;;;;;;2.00;100.00;101108.98;3586137;80;26486;-85
2022/11/29 07:56:03;;;;;;;62.17;29.10;;;;;;;2.00;100.00;101111.69;3578076;79;98970;-86
2022/11/29 08:01:04;;;;;;;59.47;30.07;;;;;;;2.00;100.00;101114.41;3583378;80;32542;-85
2022/11/29 08:06:05;;;;;;;74.10;37.57;;;;;;;1.99;100.00;101112.27;3583411;80;98959;-86
2022/11/29 08:11:11;;;;;;;63.87;27.53;;;;;;;1.99;100.00;101116.88;3581623;80;32534;-86
2022/11/29 08:16:18;;;;;;;60.80;28.20;;;;;;;2.01;100.00;101116.82;3581991;80;98948;-85
2022/11/29 08:21:19;;;;;;;64.37;31.10;;;;;;;1.99;100.00;101120.95;3587566;80;30071;-86
2022/11/29 08:26:21;;;;;;;65.63;31.57;;;;;;;2.01;100.00;101126.33;3575867;80;99098;-86
2022/11/29 08:31:21;;;;;;;62.40;31.68;;;;;;;2.00;100.00;101123.36;3591083;80;33927;-86
2022/11/29 08:36:22;;;;;;;63.97;29.67;;;;;;;2.01;100.00;101123.61;3583651;80;99171;-87
2022/11/29 08:41:23;;;;;;;68.63;32.87;;;;;;;2.05;100.00;101127.88;3591422;80;32426;-85
2022/11/29 08:47:34;;;;;;;57.37;30.70;;;;;;;2.04;100.00;101130.34;3585137;80;99076;-86
2022/11/29 08:51:26;;;;;;;69.10;34.17;;;;;;;2.05;100.00;101127.34;3588163;80;29656;-85
2022/11/29 08:56:27;;;;;;;78.43;36.60;;;;;;;2.05;100.00;101130.59;3587755;80;99193;-86
2022/11/29 09:01:28;;;;;;;83.10;44.47;;;;;;;2.06;100.00;101134.37;3601382;80;33790;-86
2022/11/29 09:06:32;;;;;;;69.77;33.47;;;;;;;2.05;100.00;101128.69;3623176;80;98692;-85
2022/11/29 09:11:34;;;;;;;74.40;34.78;;;;;;;2.08;100.00;101136.21;3612906;80;33580;-86
2022/11/29 09:16:37;;;;;;;60.92;28.87;;;;;;;2.08;100.00;101139.50;3626680;79;98866;-84
2022/11/29 09:21:37;;;;;;;72.08;35.28;;;;;;;2.11;100.00;101142.95;3617389;80;32355;-85
2022/11/29 09:26:40;;;;;;;67.30;33.53;;;;;;;2.11;100.00;101136.98;3625865;79;98811;-85
2022/11/29 09:31:45;;;;;;;69.95;33.80;;;;;;;2.15;100.00;101137.98;3636544;80;33518;-85
2022/11/29 09:36:47;;;;;;;71.30;35.73;;;;;;;2.14;100.00;101149.92;3611444;80;98855;-86
2022/11/29 09:42:34;;;;;;;75.30;36.77;;;;;;;2.17;100.00;101156.13;3628538;80;31732;-87
2022/11/29 09:47:50;;;;;;;;;;;;;;;2.14;100.00;101147.78;3630193;80;99066;-85
2022/11/29 09:53:08;;;;;;;90.70;37.30;;;;;;;2.15;100.00;101153.45;3635349;80;25895;-84
2022/11/29 09:58:14;;;;;;;84.80;39.27;;;;;;;2.18;100.00;101149.58;3632388;80;34343;-85
2022/11/29 10:03:35;;;;;;;71.40;35.88;;;;;;;2.23;100.00;101149.48;3618141;80;99137;-86
2022/11/29 10:08:47;;;;;;;69.00;34.17;;;;;;;2.24;100.00;101140.22;3628791;80;30131;-86
2022/11/29 10:13:53;;;;;;;72.35;34.03;;;;;;;2.20;100.00;101139.78;3621293;79;98742;-87
2022/11/29 10:19:14;;;;;;;67.67;32.23;;;;;;;2.21;100.00;101150.34;3631418;80;26226;-86
2022/11/29 10:24:19;;;;;;;70.10;33.53;;;;;;;2.25;100.00;101151.89;3629258;80;98769;-86
2022/11/29 10:29:21;;;;;;;64.50;31.25;;;;;;;2.27;100.00;101145.59;3633577;80;35358;-85
2022/11/29 10:34:24;;;;;;;76.33;36.07;;;;;;;2.30;100.00;101146.36;3609904;80;99077;-86
2022/11/29 10:39:41;;;;;;;71.17;34.03;;;;;;;2.26;100.00;101158.92;3629872;80;33680;-86
2022/11/29 10:44:41;;;;;;;78.00;36.38;;;;;;;2.32;100.00;101152.28;3611396;79;99084;-86
2022/11/29 10:49:42;;;;;;;80.20;36.57;;;;;;;2.29;100.00;101156.41;3616459;79;30649;-85
2022/11/29 10:54:45;;;;;;;71.67;35.67;;;;;;;2.31;100.00;101154.20;3626002;79;98947;-86
2022/11/29 11:00:08;;;;;;;72.22;36.20;;;;;;;2.34;100.00;101151.41;3621319;79;32036;-85
2022/11/29 11:05:17;;;;;;;64.90;31.00;;;;;;;2.35;100.00;101153.83;3621431;79;99054;-86
2022/11/29 11:10:28;;;;;;;71.17;36.28;;;;;;;2.40;100.00;101157.00;3616758;79;34979;-86
2022/11/29 11:15:30;;;;;;;69.90;32.78;;;;;;;2.46;100.00;101155.78;3615804;79;98933;-83
2022/11/29 11:20:39;;;;;;;66.77;31.23;;;;;;;2.42;100.00;101162.38;3625418;79;35463;-86
2022/11/29 11:25:40;;;;;;;74.42;36.10;;;;;;;2.43;100.00;101157.73;3625473;79;99037;-84
2022/11/29 11:31:00;;;;;;;64.70;32.70;;;;;;;2.43;100.00;101154.48;3623168;79;26307;-84
2022/11/29 11:36:09;;;;;;;75.20;34.13;;;;;;;2.43;100.00;101154.48;3589669;81;99052;-84
2022/11/29 11:41:21;;;;;;;68.67;33.83;;;;;;;2.44;100.00;101166.13;3597854;81;33653;-84
2022/11/29 11:46:23;;;;;;;71.23;32.43;;;;;;;2.42;100.00;101165.10;3521606;81;98891;-87
2022/11/29 11:51:24;;;;;;;68.45;34.08;;;;;;;2.46;100.00;101172.87;3615421;80;35873;-85
2022/11/29 11:56:31;;;;;;;63.43;31.93;;;;;;;2.49;100.00;101170.91;3606501;80;98863;-86
2022/11/29 12:01:38;;;;;;;64.92;31.20;;;;;;;2.50;100.00;101171.16;3555089;81;26424;-84
2022/11/29 12:07:02;;;;;;;68.15;33.48;;;;;;;2.52;100.00;101171.64;3488810;82;98834;-85
2022/11/29 12:12:17;;;;;;;69.77;35.28;;;;;;;2.53;100.00;101179.25;3591560;80;34266;-84
2022/11/29 12:17:57;;;;;;;68.72;33.88;;;;;;;2.54;100.00;101168.09;3599119;80;98879;-86
2022/11/29 12:23:15;;;;;;;64.30;32.33;;;;;;;2.56;100.00;101174.01;3598968;80;34943;-86
2022/11/29 12:28:19;;;;;;;66.80;33.40;;;;;;;2.59;100.00;101177.48;3553795;81;30107;-86
2022/11/29 12:33:40;;;;;;;64.37;33.73;;;;;;;2.64;100.00;101175.20;3602366;80;99018;-85
2022/11/29 12:38:49;;;;;;;67.73;33.23;;;;;;;2.67;100.00;101186.83;3529464;80;32032;-86
2022/11/29 12:44:22;;;;;;;64.55;33.98;;;;;;;2.64;100.00;101185.53;3553255;80;99221;-85
2022/11/29 12:49:40;;;;;;;67.13;31.97;;;;;;;2.64;100.00;101196.94;3573272;81;30106;-86
2022/11/29 12:55:04;;;;;;;67.37;31.93;;;;;;;2.69;100.00;101201.69;3557997;81;98904;-85
2022/11/29 13:00:13;;;;;;;67.90;31.55;;;;;;;2.73;100.00;101198.62;3572471;81;33993;-86
2022/11/29 13:05:49;;;;;;;66.23;32.50;;;;;;;2.71;100.00;101203.57;3597609;80;98994;-84
2022/11/29 13:11:04;;;;;;;61.08;30.77;;;;;;;2.73;100.00;101202.70;3629120;81;33104;-86
2022/11/29 13:16:36;;;;;;;60.45;30.68;;;;;;;2.74;100.00;101202.94;3623586;80;99013;-84
2022/11/29 13:22:08;;;;;;;72.45;33.25;;;;;;;2.74;100.00;101208.38;3627455;80;33234;-86
2022/11/29 13:27:14;;;;;;;65.05;31.77;;;;;;;2.72;100.00;101209.79;3622776;81;98854;-84
2022/11/29 13:32:35;;;;;;;65.08;32.90;;;;;;;2.68;100.00;101219.69;3628905;80;26514;-85
2022/11/29 13:37:41;;;;;;;62.25;30.45;;;;;;;2.68;100.00;101227.27;3621152;80;98937;-86
2022/11/29 13:43:00;;;;;;;66.28;32.23;;;;;;;2.69;100.00;101230.23;3629257;81;26241;-86
2022/11/29 13:48:21;;;;;;;73.53;34.30;;;;;;;2.67;100.00;101233.81;3614294;81;98781;-84
2022/11/29 13:53:26;;;;;;;67.17;32.33;;;;;;;2.65;100.00;101248.81;3606823;81;99006;-86
2022/11/29 13:58:32;;;;;;;72.30;33.78;;;;;;;2.60;100.00;101240.77;3618479;81;26581;-85
2022/11/29 14:03:37;;;;;;;68.87;32.37;;;;;;;2.60;100.00;101248.38;3600499;81;98941;-84
2022/11/29 14:09:16;;;;;;;68.80;33.70;;;;;;;2.62;100.00;101256.23;3575179;81;35080;-86
2022/11/29 14:14:28;;;;;;;72.60;33.67;;;;;;;2.61;100.00;101249.98;3578318;81;99033;-87
2022/11/29 14:19:32;;;;;;;68.62;33.35;;;;;;;2.60;100.00;101251.64;3570394;81;34861;-84
2022/11/29 14:24:40;;;;;;;67.50;32.30;;;;;;;2.59;100.00;101258.19;3564813;80;98940;-87
2022/11/29 14:29:52;;;;;;;66.73;32.10;;;;;;;2.57;100.00;101257.70;3597915;80;28134;-88
2022/11/29 14:35:10;;;;;;;78.43;39.17;;;;;;;2.51;100.00;101254.27;3563968;80;99030;-85
2022/11/29 14:40:43;;;;;;;72.40;33.02;;;;;;;2.45;100.00;101259.56;3556923;81;34960;-84
2022/11/29 14:45:44;;;;;;;69.72;35.63;;;;;;;2.44;100.00;101266.64;3547279;81;99093;-86
2022/11/29 14:50:44;;;;;;;70.00;36.30;;;;;;;2.43;100.00;101265.04;3535314;81;33125;-85
2022/11/29 14:55:47;;;;;;;70.87;34.27;;;;;;;2.44;100.00;101268.00;3530031;82;99095;-87
2022/11/29 15:00:54;;;;;;;71.30;33.63;;;;;;;2.44;100.00;101271.53;3529918;82;25881;-86
2022/11/29 15:06:18;;;;;;;69.20;34.73;;;;;;;2.40;100.00;101276.53;3527753;81;98821;-86
2022/11/29 15:11:48;;;;;;;69.40;36.35;;;;;;;2.39;100.00;101273.53;3528945;81;35240;-85
2022/11/29 15:17:28;;;;;;;67.60;32.78;;;;;;;2.36;100.00;101279.59;3550012;81;98999;-87
2022/11/29 15:22:41;;;;;;;68.40;33.67;;;;;;;2.34;100.00;101287.21;3556391;83;34882;-86
2022/11/29 15:28:01;;;;;;;73.97;34.73;;;;;;;2.30;100.00;101289.73;3540272;83;98745;-86
2022/11/29 15:33:16;;;;;;;73.55;34.45;;;;;;;2.26;100.00;101281.95;3560237;81;34302;-87
2022/11/29 15:38:20;;;;;;;67.67;31.93;;;;;;;2.25;100.00;101291.19;3546948;81;30154;-88
2022/11/29 15:43:34;;;;;;;80.90;43.08;;;;;;;2.24;100.00;101292.30;3539692;82;98909;-88
2022/11/29 15:48:34;;;;;;;71.70;33.20;;;;;;;2.20;100.00;101292.63;3510435;83;31059;-89
2022/11/29 15:54:04;;;;;;;68.17;32.78;;;;;;;2.20;100.00;101295.35;3507660;81;99178;-87
2022/11/29 15:59:33;;;;;;;63.78;30.77;;;;;;;2.20;100.00;101293.99;3570289;81;34555;-85
2022/11/29 16:04:37;;;;;;;68.57;32.63;;;;;;;2.21;100.00;101303.78;3558006;81;98661;-89
2022/11/29 16:09:43;;;;;;;67.12;34.78;;;;;;;2.20;100.00;101295.35;3555895;81;31141;-87
2022/11/29 16:14:55;;;;;;;92.05;47.00;;;;;;;2.17;100.00;101300.58;3555885;82;99098;-88
2022/11/29 16:20:17;;;;;;;73.87;35.03;;;;;;;2.18;100.00;101309.01;3564108;81;34027;-85
2022/11/29 16:25:18;;;;;;;70.10;34.03;;;;;;;2.18;100.00;101310.36;3533664;82;99473;-87
2022/11/29 16:30:25;;;;;;;72.60;34.17;;;;;;;2.19;100.00;101316.04;3569799;81;26053;-86
2022/11/29 16:35:35;;;;;;;77.32;36.05;;;;;;;2.19;100.00;101322.83;3563346;82;98941;-85
2022/11/29 16:40:35;;;;;;;80.80;39.50;;;;;;;2.19;100.00;101331.77;3560477;82;30074;-85
2022/11/29 16:45:42;;;;;;;72.20;35.37;;;;;;;2.19;100.00;101335.84;3572525;81;99158;-86
2022/11/29 16:50:44;;;;;;;67.05;32.73;;;;;;;2.19;100.00;101335.84;3588858;81;35382;-86
2022/11/29 16:55:45;;;;;;;75.45;37.60;;;;;;;2.20;100.00;101339.38;3593203;80;99101;-87
2022/11/29 17:00:46;;;;;;;73.50;34.90;;;;;;;2.21;100.00;101341.80;3597817;80;32036;-86
2022/11/29 17:05:48;;;;;;;66.17;34.40;;;;;;;2.21;100.00;101340.44;3593591;80;98965;-85
2022/11/29 17:10:52;;;;;;;77.73;36.10;;;;;;;2.18;100.00;101345.09;3620224;80;32520;-88
2022/11/29 17:15:53;;;;;;;80.17;41.23;;;;;;;2.17;100.00;101344.84;3610072;80;99142;-87
2022/11/29 17:20:55;;;;;;;74.53;37.03;;;;;;;2.17;100.00;101350.82;3612338;80;30683;-85
2022/11/29 17:26:00;;;;;;;71.92;34.60;;;;;;;2.17;100.00;101350.28;3604846;80;98722;-86
2022/11/29 17:31:11;;;;;;;74.83;35.77;;;;;;;2.20;100.00;101355.09;3617572;80;32806;-88
2022/11/29 17:36:15;;;;;;;81.67;43.73;;;;;;;2.17;100.00;101361.14;3607035;80;99069;-88
2022/11/29 17:41:21;;;;;;;79.50;36.98;;;;;;;2.16;100.00;101364.15;3616933;80;34052;-87
2022/11/29 17:46:28;;;;;;;82.65;40.43;;;;;;;2.16;100.00;101362.25;3589864;81;99166;-86
2022/11/29 17:51:30;;;;;;;75.03;37.42;;;;;;;2.18;100.00;101366.82;3581059;80;32994;-87
2022/11/29 17:56:31;;;;;;;79.57;38.27;;;;;;;2.19;100.00;101368.42;3575450;80;98889;-86
2022/11/29 18:01:34;;;;;;;83.30;40.47;;;;;;;2.19;100.00;101369.00;3545801;82;28141;-85
2022/11/29 18:06:38;;;;;;;76.50;39.03;;;;;;;2.19;100.00;101367.07;3574600;80;98694;-85
2022/11/29 18:11:46;;;;;;;75.90;37.53;;;;;;;2.17;100.00;101371.19;3580797;80;34001;-86
2022/11/29 18:16:45;;;;;;;73.77;36.57;;;;;;;2.16;100.00;101375.02;3585911;80;98738;-86
2022/11/29 18:21:46;;;;;;;73.60;35.63;;;;;;;2.15;100.00;101379.66;3581071;81;25897;-88
2022/11/29 18:26:47;;;;;;;76.27;36.37;;;;;;;2.16;100.00;101377.19;3548202;80;98906;-87
2022/11/29 18:31:48;;;;;;;74.40;34.13;;;;;;;2.17;100.00;101385.58;3592346;80;33108;-86
2022/11/29 18:36:49;;;;;;;76.80;36.30;;;;;;;2.16;100.00;101379.08;3574421;80;98970;-87
2022/11/29 18:41:50;;;;;;;73.77;35.93;;;;;;;2.15;100.00;101386.98;3579260;82;33508;-85
2022/11/29 18:46:51;;;;;;;74.83;34.83;;;;;;;2.19;100.00;101383.94;3587983;80;98816;-84
2022/11/29 18:51:51;;;;;;;79.87;37.73;;;;;;;2.14;100.00;101386.16;3605883;81;33714;-84
2022/11/29 18:56:52;;;;;;;93.53;41.83;;;;;;;2.14;100.00;101390.81;3603756;80;99625;-85
2022/11/29 19:01:53;;;;;;;81.57;37.53;;;;;;;2.14;100.00;101385.38;3612620;81;32485;-86
2022/11/29 19:06:54;;;;;;;80.53;38.73;;;;;;;2.17;100.00;101391.55;3603052;81;98804;-86
2022/11/29 19:11:54;;;;;;;75.60;36.67;;;;;;;2.17;100.00;101391.55;3600166;80;26402;-84
2022/11/29 19:16:55;;;;;;;83.37;39.77;;;;;;;2.17;100.00;101388.30;3606156;80;98924;-85
2022/11/29 19:21:56;;;;;;;75.50;33.50;;;;;;;2.17;100.00;101392.91;3608407;80;26046;-83
2022/11/29 19:26:59;;;;;;;86.67;39.13;;;;;;;2.18;100.00;101397.27;3610576;81;98773;-85
2022/11/29 19:32:01;;;;;;;81.40;41.07;;;;;;;2.13;100.00;101394.06;3617265;80;26460;-84
2022/11/29 19:37:02;;;;;;;76.97;36.17;;;;;;;2.14;100.00;101403.03;3615481;80;98795;-84
2022/11/29 19:42:03;;;;;;;71.45;35.40;;;;;;;2.14;100.00;101401.67;3612360;81;26325;-85
2022/11/29 19:47:03;;;;;;;79.40;39.25;;;;;;;2.15;100.00;101408.17;3587858;80;98654;-84
2022/11/29 19:52:04;;;;;;;79.70;37.27;;;;;;;2.15;100.00;101414.95;3591992;82;26228;-84
2022/11/29 19:57:05;;;;;;;77.00;36.63;;;;;;;2.13;100.00;101411.71;3541640;82;98897;-83
2022/11/29 20:02:06;;;;;;;88.57;41.60;;;;;;;2.14;100.00;101413.32;3537979;82;25829;-84
2022/11/29 20:07:06;;;;;;;86.75;39.20;;;;;;;2.13;100.00;101422.57;3573723;81;98626;-84
2022/11/29 20:12:07;;;;;;;85.00;38.73;;;;;;;2.16;100.00;101418.45;3598993;81;33195;-85
2022/11/29 20:17:08;;;;;;;83.60;38.63;;;;;;;2.17;100.00;101420.06;3584402;80;98746;-84
2022/11/29 20:22:09;;;;;;;83.10;38.90;;;;;;;2.16;100.00;101422.53;3610332;81;33236;-85
2022/11/29 20:27:10;;;;;;;88.60;40.30;;;;;;;2.16;100.00;101416.56;3594883;81;98811;-85
2022/11/29 20:32:11;;;;;;;82.37;38.73;;;;;;;2.14;100.00;101422.82;3605018;80;33198;-85
2022/11/29 20:37:20;;;;;;;76.70;34.83;;;;;;;2.15;100.00;101423.64;3588883;80;99132;-85
2022/11/29 20:43:02;;;;;;;79.23;36.03;;;;;;;2.15;100.00;101425.00;3598601;80;26300;-86
2022/11/29 20:48:19;;;;;;;78.33;39.33;;;;;;;2.15;100.00;101424.46;3599225;80;98761;-84
2022/11/29 20:53:32;;;;;;;90.27;40.20;;;;;;;2.15;100.00;101419.03;3601401;81;99087;-85
2022/11/29 20:58:33;;;;;;;87.27;40.17;;;;;;;2.14;100.00;101430.97;3612186;80;26365;-84
2022/11/29 21:03:34;;;;;;;78.33;36.80;;;;;;;2.11;100.00;101430.76;3598248;80;99141;-85
2022/11/29 21:08:35;;;;;;;89.10;40.57;;;;;;;2.11;100.00;101431.58;3548752;82;33296;-84
2022/11/29 21:13:37;;;;;;;84.00;39.50;;;;;;;2.11;100.00;101432.94;3545882;81;99113;-84
2022/11/29 21:18:39;;;;;;;84.43;37.90;;;;;;;2.08;100.00;101430.80;3597185;80;33187;-84
2022/11/29 21:24:05;;;;;;;82.50;36.10;;;;;;;2.09;100.00;101437.84;3597685;79;99066;-84
2022/11/29 21:29:16;;;;;;;88.00;38.90;;;;;;;2.11;100.00;101444.34;3520454;81;25979;-86
2022/11/29 21:34:19;;;;;;;80.70;36.65;;;;;;;2.11;100.00;101445.70;3511488;82;98850;-85
2022/11/29 21:39:20;;;;;;;80.23;41.07;;;;;;;2.10;100.00;101439.47;3515147;82;26783;-85
2022/11/29 21:44:20;;;;;;;84.17;40.67;;;;;;;2.12;100.00;101452.19;3504398;82;99066;-85
2022/11/29 21:49:21;;;;;;;82.70;37.80;;;;;;;2.11;100.00;101447.05;3514971;82;33714;-86
2022/11/29 21:54:22;;;;;;;90.13;40.30;;;;;;;2.13;100.00;101448.37;3499904;82;99160;-85
2022/11/29 21:59:23;;;;;;;86.30;40.57;;;;;;;2.15;100.00;101444.00;3504736;82;33156;-84
2022/11/29 22:04:24;;;;;;;90.23;41.80;;;;;;;2.14;100.00;101449.98;3513540;82;99016;-86
2022/11/29 22:09:25;;;;;;;81.17;38.90;;;;;;;2.14;100.00;101447.26;3513849;82;33662;-86
2022/11/29 22:14:26;;;;;;;78.97;38.40;;;;;;;2.14;100.00;101448.62;3504824;82;99154;-85
2022/11/29 22:19:33;;;;;;;99.53;44.13;;;;;;;2.12;100.00;101448.13;3511154;82;30369;-85
2022/11/29 22:24:36;;;;;;;83.27;39.63;;;;;;;2.12;100.00;101452.73;3473540;82;99059;-84
2022/11/29 22:29:36;;;;;;;82.60;38.67;;;;;;;2.15;100.00;101450.26;3508525;82;30584;-86
2022/11/29 22:34:37;;;;;;;83.97;39.93;;;;;;;2.15;100.00;101452.16;3491558;82;98903;-85
2022/11/29 22:39:38;;;;;;;77.70;37.40;;;;;;;2.15;100.00;101452.16;3487624;82;31589;-84
2022/11/29 22:44:39;;;;;;;81.83;37.80;;;;;;;2.13;100.00;101446.22;3496574;81;99063;-84
2022/11/29 22:49:40;;;;;;;84.40;38.87;;;;;;;2.12;100.00;101453.55;3516639;81;31707;-84
2022/11/29 22:54:40;;;;;;;86.63;38.90;;;;;;;2.09;100.00;101454.70;3516877;81;99018;-84
2022/11/29 22:59:41;;;;;;;85.07;39.40;;;;;;;2.09;100.00;101447.34;3525954;81;30805;-85
2022/11/29 23:04:42;;;;;;;87.17;43.77;;;;;;;2.09;100.00;101454.13;3515369;81;98987;-85
2022/11/29 23:09:42;;;;;;;82.13;40.23;;;;;;;2.08;100.00;101448.45;3523101;81;35062;-84
2022/11/29 23:14:43;;;;;;;84.62;41.25;;;;;;;2.08;100.00;101449.81;3522000;81;99037;-85
2022/11/29 23:19:44;;;;;;;76.73;37.33;;;;;;;2.05;100.00;101441.45;3536370;81;34802;-85
2022/11/29 23:24:45;;;;;;;90.60;39.98;;;;;;;2.08;100.00;101452.52;3522854;81;98915;-84
2022/11/29 23:29:46;;;;;;;86.30;40.23;;;;;;;2.10;100.00;101449.52;3528818;81;34884;-85
2022/11/29 23:34:46;;;;;;;81.50;40.27;;;;;;;2.08;100.00;101446.30;3521985;81;99098;-85